createdAt,value
2019-06-01T00:00:12.711Z,1010.78
2019-06-01T00:01:12.679Z,1010.74
2019-06-01T00:02:12.672Z,1010.77
2019-06-01T00:03:12.660Z,1010.76
2019-06-01T00:04:12.645Z,1010.77
2019-06-01T00:05:12.655Z,1010.72
2019-06-01T00:06:12.623Z,1010.78
2019-06-01T00:07:12.638Z,1010.78
2019-06-01T00:08:12.603Z,1010.67
2019-06-01T00:09:12.586Z,1010.72
2019-06-01T00:10:12.592Z,1010.75
2019-06-01T00:11:12.583Z,1010.70
2019-06-01T00:12:12.553Z,1010.74
2019-06-01T00:13:12.541Z,1010.77
2019-06-01T00:14:12.526Z,1010.73
2019-06-01T00:15:12.517Z,1010.71
2019-06-01T00:16:12.524Z,1010.70
2019-06-01T00:17:12.494Z,1010.71
2019-06-01T00:18:12.535Z,1010.70
2019-06-01T00:19:12.469Z,1010.68
2019-06-01T00:20:12.464Z,1010.66
2019-06-01T00:21:12.466Z,1010.66
2019-06-01T00:22:12.437Z,1010.64
2019-06-01T00:23:12.442Z,1010.62
2019-06-01T00:24:12.415Z,1010.66
2019-06-01T00:25:12.401Z,1010.66
2019-06-01T00:26:12.432Z,1010.65
2019-06-01T00:27:12.378Z,1010.62
2019-06-01T00:28:12.364Z,1010.65
2019-06-01T00:29:12.355Z,1010.63
2019-06-01T00:30:26.170Z,1010.70
2019-06-01T00:31:13.350Z,1010.61
2019-06-01T00:32:12.320Z,1010.66
2019-06-01T00:33:12.308Z,1010.66
2019-06-01T00:34:12.294Z,1010.59
2019-06-01T00:35:12.284Z,1010.58
2019-06-01T00:36:12.270Z,1010.60
2019-06-01T00:37:12.282Z,1010.66
2019-06-01T00:38:12.247Z,1010.61
2019-06-01T00:39:12.239Z,1010.61
2019-06-01T00:40:12.232Z,1010.66
2019-06-01T00:41:12.214Z,1010.60
2019-06-01T00:42:12.258Z,1010.58
2019-06-01T00:43:12.192Z,1010.62
2019-06-01T00:44:12.178Z,1010.60
2019-06-01T00:45:12.168Z,1010.63
2019-06-01T00:46:12.157Z,1010.63
2019-06-01T00:47:12.172Z,1010.57
2019-06-01T00:48:12.143Z,1010.56
2019-06-01T00:49:12.122Z,1010.64
2019-06-01T00:50:12.112Z,1010.61
2019-06-01T00:51:12.099Z,1010.68
2019-06-01T00:52:12.088Z,1010.63
2019-06-01T00:53:12.118Z,1010.68
2019-06-01T00:54:12.068Z,1010.62
2019-06-01T00:55:12.058Z,1010.61
2019-06-01T00:56:12.041Z,1010.60
2019-06-01T00:57:12.028Z,1010.56
2019-06-01T00:58:12.034Z,1010.64
2019-06-01T00:59:12.004Z,1010.64
2019-06-01T01:00:11.995Z,1010.58
2019-06-01T01:01:11.981Z,1010.63
2019-06-01T01:02:11.969Z,1010.61
2019-06-01T01:03:11.974Z,1010.69
2019-06-01T01:04:11.944Z,1010.66
2019-06-01T01:05:11.934Z,1010.68
2019-06-01T01:06:11.923Z,1010.70
2019-06-01T01:07:11.912Z,1010.65
2019-06-01T01:08:11.918Z,1010.70
2019-06-01T01:09:11.890Z,1010.71
2019-06-01T01:10:11.876Z,1010.68
2019-06-01T01:11:11.863Z,1010.65
2019-06-01T01:12:11.854Z,1010.73
2019-06-01T01:13:11.862Z,1010.71
2019-06-01T01:14:11.828Z,1010.74
2019-06-01T01:15:11.848Z,1010.70
2019-06-01T01:16:11.805Z,1010.69
2019-06-01T01:17:11.793Z,1010.66
2019-06-01T01:18:11.806Z,1010.70
2019-06-01T01:19:11.770Z,1010.67
2019-06-01T01:20:11.759Z,1010.71
2019-06-01T01:21:11.746Z,1010.70
2019-06-01T01:22:11.736Z,1010.71
2019-06-01T01:23:11.724Z,1010.70
2019-06-01T01:24:11.731Z,1010.68
2019-06-01T01:25:11.701Z,1010.68
2019-06-01T01:26:11.718Z,1010.75
2019-06-01T01:27:11.679Z,1010.67
2019-06-01T01:28:11.664Z,1010.73
2019-06-01T01:29:11.673Z,1010.68
2019-06-01T01:30:11.644Z,1010.67
2019-06-01T01:31:14.223Z,1010.68
2019-06-01T01:32:11.617Z,1010.71
2019-06-01T01:33:11.607Z,1010.72
2019-06-01T01:34:11.617Z,1010.64
2019-06-01T01:35:11.585Z,1010.65
2019-06-01T01:36:11.619Z,1010.61
2019-06-01T01:37:11.559Z,1010.61
2019-06-01T01:38:11.548Z,1010.59
2019-06-01T01:39:11.538Z,1010.64
2019-06-01T01:40:11.542Z,1010.62
2019-06-01T01:41:11.515Z,1010.59
2019-06-01T01:42:11.502Z,1010.59
2019-06-01T01:43:11.488Z,1010.61
2019-06-01T01:44:11.476Z,1010.53
2019-06-01T01:45:11.506Z,1010.55
2019-06-01T01:46:11.451Z,1010.60
2019-06-01T01:47:14.321Z,1010.58
2019-06-01T01:48:11.430Z,1010.56
2019-06-01T01:49:11.416Z,1010.55
2019-06-01T01:50:11.403Z,1010.54
2019-06-01T01:51:11.410Z,1010.50
2019-06-01T01:52:11.418Z,1010.58
2019-06-01T01:53:11.367Z,1010.61
2019-06-01T01:54:11.354Z,1010.52
2019-06-01T01:55:11.350Z,1010.54
2019-06-01T01:56:11.357Z,1010.53
2019-06-01T01:57:11.320Z,1010.50
2019-06-01T01:58:11.307Z,1010.48
2019-06-01T01:59:11.298Z,1010.54
2019-06-01T02:00:11.283Z,1010.53
2019-06-01T02:01:22.214Z,1010.50
2019-06-01T02:02:12.302Z,1010.51
2019-06-01T02:03:11.247Z,1010.51
2019-06-01T02:04:11.234Z,1010.49
2019-06-01T02:05:11.223Z,1010.50
2019-06-01T02:06:11.223Z,1010.49
2019-06-01T02:07:11.199Z,1010.55
2019-06-01T02:08:11.207Z,1010.52
2019-06-01T02:09:11.176Z,1010.44
2019-06-01T02:10:11.162Z,1010.43
2019-06-01T02:11:11.151Z,1010.48
2019-06-01T02:12:11.140Z,1010.46
2019-06-01T02:13:11.146Z,1010.50
2019-06-01T02:14:11.114Z,1010.42
2019-06-01T02:15:11.103Z,1010.52
2019-06-01T02:16:11.091Z,1010.51
2019-06-01T02:17:11.078Z,1010.47
2019-06-01T02:18:11.091Z,1010.48
2019-06-01T02:19:11.060Z,1010.45
2019-06-01T02:20:11.044Z,1010.50
2019-06-01T02:21:11.030Z,1010.49
2019-06-01T02:22:11.020Z,1010.48
2019-06-01T02:23:11.048Z,1010.48
2019-06-01T02:24:10.997Z,1010.40
2019-06-01T02:25:10.982Z,1010.41
2019-06-01T02:26:10.968Z,1010.39
2019-06-01T02:27:10.957Z,1010.43
2019-06-01T02:28:10.946Z,1010.34
2019-06-01T02:29:10.956Z,1010.34
2019-06-01T02:30:10.932Z,1010.36
2019-06-01T02:31:10.912Z,1010.40
2019-06-01T02:32:10.898Z,1010.37
2019-06-01T02:33:10.887Z,1010.35
2019-06-01T02:34:10.876Z,1010.41
2019-06-01T02:35:10.882Z,1010.41
2019-06-01T02:36:10.850Z,1010.39
2019-06-01T02:37:10.839Z,1010.37
2019-06-01T02:38:10.837Z,1010.45
2019-06-01T02:39:10.812Z,1010.43
2019-06-01T02:40:10.819Z,1010.45
2019-06-01T02:41:10.788Z,1010.37
2019-06-01T02:42:10.784Z,1010.46
2019-06-01T02:43:10.767Z,1010.37
2019-06-01T02:44:10.797Z,1010.38
2019-06-01T02:45:10.748Z,1010.34
2019-06-01T02:46:10.732Z,1010.36
2019-06-01T02:47:10.722Z,1010.38
2019-06-01T02:48:10.706Z,1010.32
2019-06-01T02:49:10.699Z,1010.40
2019-06-01T02:50:10.705Z,1010.41
2019-06-01T02:51:10.674Z,1010.35
2019-06-01T02:52:10.659Z,1010.36
2019-06-01T02:53:10.648Z,1010.37
2019-06-01T02:54:10.677Z,1010.41
2019-06-01T02:55:10.625Z,1010.36
2019-06-01T02:56:10.610Z,1010.36
2019-06-01T02:57:10.603Z,1010.37
2019-06-01T02:58:10.589Z,1010.30
2019-06-01T02:59:10.574Z,1010.38
2019-06-01T03:00:17.627Z,1010.32
2019-06-01T03:01:10.554Z,1010.36
2019-06-01T03:02:13.518Z,1010.38
2019-06-01T03:03:10.535Z,1010.41
2019-06-01T03:04:10.520Z,1010.41
2019-06-01T03:05:10.531Z,1010.34
2019-06-01T03:06:10.510Z,1010.40
2019-06-01T03:07:10.490Z,1010.34
2019-06-01T03:08:10.473Z,1010.38
2019-06-01T03:09:10.475Z,1010.33
2019-06-01T03:10:10.485Z,1010.35
2019-06-01T03:11:10.450Z,1010.41
2019-06-01T03:12:10.428Z,1010.34
2019-06-01T03:13:10.446Z,1010.37
2019-06-01T03:14:10.411Z,1010.33
2019-06-01T03:15:10.388Z,1010.36
2019-06-01T03:16:10.395Z,1010.29
2019-06-01T03:17:10.400Z,1010.37
2019-06-01T03:18:10.351Z,1010.34
2019-06-01T03:19:10.345Z,1010.34
2019-06-01T03:20:10.333Z,1010.30
2019-06-01T03:21:10.344Z,1010.38
2019-06-01T03:22:10.318Z,1010.32
2019-06-01T03:23:10.311Z,1010.35
2019-06-01T03:24:10.283Z,1010.32
2019-06-01T03:25:10.265Z,1010.42
2019-06-01T03:26:10.259Z,1010.38
2019-06-01T03:27:10.267Z,1010.38
2019-06-01T03:28:10.246Z,1010.40
2019-06-01T03:29:10.220Z,1010.39
2019-06-01T03:30:12.952Z,1010.40
2019-06-01T03:31:11.204Z,1010.45
2019-06-01T03:32:33.304Z,1010.41
2019-06-01T03:33:11.176Z,1010.41
2019-06-01T03:34:11.391Z,1010.44
2019-06-01T03:35:10.148Z,1010.42
2019-06-01T03:36:10.135Z,1010.46
2019-06-01T03:37:10.150Z,1010.44
2019-06-01T03:38:11.153Z,1010.48
2019-06-01T03:39:10.099Z,1010.44
2019-06-01T03:40:19.556Z,1010.52
2019-06-01T03:41:12.317Z,1010.44
2019-06-01T03:42:11.640Z,1010.44
2019-06-01T03:43:11.293Z,1010.39
2019-06-01T03:44:10.040Z,1010.35
2019-06-01T03:45:10.037Z,1010.40
2019-06-01T03:46:10.014Z,1010.43
2019-06-01T03:47:10.012Z,1010.43
2019-06-01T03:48:10.014Z,1010.39
2019-06-01T03:49:09.982Z,1010.35
2019-06-01T03:50:09.981Z,1010.36
2019-06-01T03:51:09.964Z,1010.40
2019-06-01T03:52:09.947Z,1010.35
2019-06-01T03:53:10.006Z,1010.34
2019-06-01T03:54:10.197Z,1010.34
2019-06-01T03:55:09.976Z,1010.37
2019-06-01T03:56:11.045Z,1010.35
2019-06-01T03:57:11.151Z,1010.34
2019-06-01T03:58:11.121Z,1010.35
2019-06-01T03:59:11.270Z,1010.32
2019-06-01T04:00:09.846Z,1010.26
2019-06-01T04:01:11.012Z,1010.36
2019-06-01T04:02:09.825Z,1010.41
2019-06-01T04:03:09.829Z,1010.36
2019-06-01T04:04:09.800Z,1010.35
2019-06-01T04:05:09.803Z,1010.34
2019-06-01T04:06:09.780Z,1010.37
2019-06-01T04:07:10.731Z,1010.35
2019-06-01T04:08:09.794Z,1010.36
2019-06-01T04:09:10.068Z,1010.39
2019-06-01T04:10:10.093Z,1010.40
2019-06-01T04:11:09.891Z,1010.41
2019-06-01T04:12:09.833Z,1010.45
2019-06-01T04:13:09.707Z,1010.44
2019-06-01T04:14:09.947Z,1010.43
2019-06-01T04:15:13.600Z,1010.45
2019-06-01T04:16:10.656Z,1010.47
2019-06-01T04:17:10.171Z,1010.47
2019-06-01T04:18:10.252Z,1010.44
2019-06-01T04:19:10.017Z,1010.44
2019-06-01T04:20:10.220Z,1010.45
2019-06-01T04:21:10.284Z,1010.39
2019-06-01T04:22:10.174Z,1010.41
2019-06-01T04:23:10.223Z,1010.41
2019-06-01T04:24:10.196Z,1010.42
2019-06-01T04:25:10.285Z,1010.41
2019-06-01T04:26:10.313Z,1010.41
2019-06-01T04:27:10.231Z,1010.41
2019-06-01T04:28:10.272Z,1010.36
2019-06-01T04:29:10.381Z,1010.45
2019-06-01T04:30:09.542Z,1010.42
2019-06-01T04:31:10.865Z,1010.43
2019-06-01T04:32:10.628Z,1010.49
2019-06-01T04:33:09.456Z,1010.44
2019-06-01T04:34:09.449Z,1010.45
2019-06-01T04:35:09.450Z,1010.45
2019-06-01T04:36:09.432Z,1010.52
2019-06-01T04:37:09.432Z,1010.52
2019-06-01T04:38:09.427Z,1010.52
2019-06-01T04:39:09.562Z,1010.58
2019-06-01T04:40:09.559Z,1010.56
2019-06-01T04:41:09.773Z,1010.55
2019-06-01T04:42:09.781Z,1010.58
2019-06-01T04:43:10.157Z,1010.58
2019-06-01T04:44:10.043Z,1010.62
2019-06-01T04:45:10.784Z,1010.64
2019-06-01T04:46:10.344Z,1010.58
2019-06-01T04:47:10.733Z,1010.59
2019-06-01T04:48:10.492Z,1010.56
2019-06-01T04:49:10.532Z,1010.57
2019-06-01T04:50:09.261Z,1010.59
2019-06-01T04:51:09.270Z,1010.63
2019-06-01T04:52:09.235Z,1010.57
2019-06-01T04:53:09.228Z,1010.61
2019-06-01T04:54:09.210Z,1010.54
2019-06-01T04:55:09.203Z,1010.50
2019-06-01T04:56:09.198Z,1010.51
2019-06-01T04:57:09.194Z,1010.57
2019-06-01T04:58:09.186Z,1010.54
2019-06-01T04:59:09.152Z,1010.58
2019-06-01T05:00:22.611Z,1010.56
2019-06-01T05:01:10.927Z,1010.53
2019-06-01T05:02:09.440Z,1010.59
2019-06-01T05:03:10.341Z,1010.55
2019-06-01T05:04:09.172Z,1010.56
2019-06-01T05:05:09.378Z,1010.60
2019-06-01T05:06:09.297Z,1010.59
2019-06-01T05:07:09.308Z,1010.58
2019-06-01T05:08:09.409Z,1010.56
2019-06-01T05:09:09.363Z,1010.55
2019-06-01T05:10:09.472Z,1010.53
2019-06-01T05:11:10.261Z,1010.53
2019-06-01T05:12:09.367Z,1010.51
2019-06-01T05:13:09.422Z,1010.57
2019-06-01T05:14:09.705Z,1010.41
2019-06-01T05:15:09.883Z,1010.49
2019-06-01T05:16:10.021Z,1010.40
2019-06-01T05:17:10.140Z,1010.44
2019-06-01T05:18:10.046Z,1010.42
2019-06-01T05:19:10.058Z,1010.46
2019-06-01T05:20:10.304Z,1010.43
2019-06-01T05:21:08.892Z,1010.41
2019-06-01T05:22:08.879Z,1010.45
2019-06-01T05:23:08.929Z,1010.44
2019-06-01T05:24:08.929Z,1010.45
2019-06-01T05:25:09.140Z,1010.42
2019-06-01T05:26:08.839Z,1010.33
2019-06-01T05:27:09.031Z,1010.39
2019-06-01T05:28:09.142Z,1010.34
2019-06-01T05:29:09.357Z,1010.38
2019-06-01T05:30:09.516Z,1010.37
2019-06-01T05:31:12.563Z,1010.39
2019-06-01T05:32:10.420Z,1010.37
2019-06-01T05:33:25.521Z,1010.34
2019-06-01T05:34:09.791Z,1010.36
2019-06-01T05:35:09.655Z,1010.38
2019-06-01T05:36:09.969Z,1010.39
2019-06-01T05:37:10.702Z,1010.40
2019-06-01T05:38:08.701Z,1010.38
2019-06-01T05:39:08.708Z,1010.42
2019-06-01T05:40:08.673Z,1010.42
2019-06-01T05:41:10.345Z,1010.40
2019-06-01T05:42:08.936Z,1010.37
2019-06-01T05:43:13.842Z,1010.41
2019-06-01T05:44:10.760Z,1010.44
2019-06-01T05:45:09.136Z,1010.36
2019-06-01T05:46:09.840Z,1010.36
2019-06-01T05:47:08.591Z,1010.39
2019-06-01T05:48:08.594Z,1010.39
2019-06-01T05:49:08.589Z,1010.33
2019-06-01T05:50:08.557Z,1010.24
2019-06-01T05:51:08.587Z,1010.36
2019-06-01T05:52:08.533Z,1010.28
2019-06-01T05:53:08.525Z,1010.26
2019-06-01T05:54:08.508Z,1010.27
2019-06-01T05:55:08.521Z,1010.23
2019-06-01T05:56:08.489Z,1010.29
2019-06-01T05:57:08.475Z,1010.30
2019-06-01T05:58:08.462Z,1010.33
2019-06-01T05:59:09.806Z,1010.25
2019-06-01T06:00:08.435Z,1010.32
2019-06-01T06:01:08.422Z,1010.35
2019-06-01T06:02:08.419Z,1010.35
2019-06-01T06:03:08.448Z,1010.34
2019-06-01T06:04:08.394Z,1010.35
2019-06-01T06:05:08.406Z,1010.31
2019-06-01T06:06:08.397Z,1010.41
2019-06-01T06:07:08.354Z,1010.44
2019-06-01T06:08:08.343Z,1010.49
2019-06-01T06:09:08.329Z,1010.51
2019-06-01T06:10:08.353Z,1010.45
2019-06-01T06:11:08.307Z,1010.48
2019-06-01T06:12:08.302Z,1010.45
2019-06-01T06:13:08.282Z,1010.57
2019-06-01T06:14:08.270Z,1010.58
2019-06-01T06:15:08.268Z,1010.59
2019-06-01T06:16:08.273Z,1010.66
2019-06-01T06:17:08.241Z,1010.62
2019-06-01T06:18:08.228Z,1010.61
2019-06-01T06:19:08.213Z,1010.62
2019-06-01T06:20:08.207Z,1010.62
2019-06-01T06:21:08.223Z,1010.65
2019-06-01T06:22:08.180Z,1010.72
2019-06-01T06:23:08.170Z,1010.73
2019-06-01T06:24:08.155Z,1010.68
2019-06-01T06:25:08.144Z,1010.76
2019-06-01T06:26:08.226Z,1010.69
2019-06-01T06:27:08.120Z,1010.80
2019-06-01T06:28:08.125Z,1010.73
2019-06-01T06:29:08.096Z,1010.83
2019-06-01T06:30:08.104Z,1010.81
2019-06-01T06:31:08.084Z,1010.86
2019-06-01T06:32:09.286Z,1010.84
2019-06-01T06:33:08.055Z,1010.90
2019-06-01T06:34:08.043Z,1010.91
2019-06-01T06:35:08.045Z,1010.85
2019-06-01T06:36:08.024Z,1010.95
2019-06-01T06:37:08.033Z,1010.89
2019-06-01T06:38:08.001Z,1010.99
2019-06-01T06:39:07.981Z,1010.93
2019-06-01T06:40:07.972Z,1010.90
2019-06-01T06:41:07.960Z,1010.96
2019-06-01T06:42:07.967Z,1010.94
2019-06-01T06:43:18.918Z,1011.00
2019-06-01T06:44:08.934Z,1010.96
2019-06-01T06:45:07.926Z,1011.03
2019-06-01T06:46:07.913Z,1011.07
2019-06-01T06:47:07.916Z,1011.02
2019-06-01T06:48:07.883Z,1010.99
2019-06-01T06:49:09.946Z,1011.03
2019-06-01T06:50:07.862Z,1011.01
2019-06-01T06:51:07.855Z,1011.13
2019-06-01T06:52:07.863Z,1011.16
2019-06-01T06:53:07.841Z,1011.08
2019-06-01T06:54:07.827Z,1011.06
2019-06-01T06:55:07.800Z,1011.12
2019-06-01T06:56:07.801Z,1011.16
2019-06-01T06:57:07.793Z,1011.14
2019-06-01T06:58:07.963Z,1011.07
2019-06-01T06:59:07.769Z,1011.15
2019-06-01T07:00:07.751Z,1011.04
2019-06-01T07:01:11.789Z,1011.14
2019-06-01T07:02:07.728Z,1011.22
2019-06-01T07:03:07.738Z,1011.14
2019-06-01T07:04:12.763Z,1011.21
2019-06-01T07:05:08.714Z,1011.12
2019-06-01T07:06:07.690Z,1011.19
2019-06-01T07:07:07.677Z,1011.12
2019-06-01T07:08:07.688Z,1011.14
2019-06-01T07:09:07.649Z,1011.09
2019-06-01T07:10:07.652Z,1011.12
2019-06-01T07:11:07.659Z,1011.08
2019-06-01T07:12:07.617Z,1011.12
2019-06-01T07:13:07.652Z,1011.23
2019-06-01T07:14:07.602Z,1011.10
2019-06-01T07:15:07.593Z,1011.16
2019-06-01T07:16:07.574Z,1011.16
2019-06-01T07:17:07.572Z,1011.17
2019-06-01T07:18:07.568Z,1011.26
2019-06-01T07:19:07.594Z,1011.27
2019-06-01T07:20:07.561Z,1011.18
2019-06-01T07:21:07.530Z,1011.18
2019-06-01T07:22:07.521Z,1011.21
2019-06-01T07:23:07.506Z,1011.23
2019-06-01T07:24:07.519Z,1011.23
2019-06-01T07:25:07.475Z,1011.14
2019-06-01T07:26:07.486Z,1011.21
2019-06-01T07:27:07.474Z,1011.21
2019-06-01T07:28:07.459Z,1011.18
2019-06-01T07:29:07.474Z,1011.25
2019-06-01T07:30:07.500Z,1011.21
2019-06-01T07:31:07.463Z,1011.20
2019-06-01T07:32:07.400Z,1011.22
2019-06-01T07:33:07.388Z,1011.20
2019-06-01T07:34:07.411Z,1011.20
2019-06-01T07:35:07.378Z,1011.23
2019-06-01T07:36:07.360Z,1011.24
2019-06-01T07:37:07.348Z,1011.29
2019-06-01T07:38:07.336Z,1011.32
2019-06-01T07:39:07.327Z,1011.38
2019-06-01T07:40:07.382Z,1011.37
2019-06-01T07:41:07.307Z,1011.44
2019-06-01T07:42:07.322Z,1011.36
2019-06-01T07:43:07.277Z,1011.48
2019-06-01T07:44:07.299Z,1011.36
2019-06-01T07:45:07.262Z,1011.29
2019-06-01T07:46:07.292Z,1011.11
2019-06-01T07:47:07.238Z,1011.17
2019-06-01T07:48:07.229Z,1011.22
2019-06-01T07:49:07.234Z,1011.13
2019-06-01T07:50:07.208Z,1010.94
2019-06-01T07:51:07.218Z,1011.16
2019-06-01T07:52:12.597Z,1011.43
2019-06-01T07:53:08.174Z,1011.43
2019-06-01T07:54:07.166Z,1011.43
2019-06-01T07:55:07.164Z,1011.42
2019-06-01T07:56:07.172Z,1011.37
2019-06-01T07:57:07.144Z,1011.37
2019-06-01T07:58:07.134Z,1011.38
2019-06-01T07:59:07.120Z,1011.26
2019-06-01T08:00:07.110Z,1011.39
2019-06-01T08:01:07.095Z,1011.33
2019-06-01T08:02:07.119Z,1011.31
2019-06-01T08:03:07.086Z,1011.32
2019-06-01T08:04:07.067Z,1011.39
2019-06-01T08:05:07.057Z,1011.35
2019-06-01T08:06:07.048Z,1011.36
2019-06-01T08:07:07.032Z,1011.41
2019-06-01T08:08:07.062Z,1011.33
2019-06-01T08:09:07.014Z,1011.43
2019-06-01T08:10:07.004Z,1011.39
2019-06-01T08:11:06.999Z,1011.34
2019-06-01T08:12:06.994Z,1011.29
2019-06-01T08:13:06.994Z,1011.39
2019-06-01T08:14:06.962Z,1011.38
2019-06-01T08:15:06.948Z,1011.36
2019-06-01T08:16:06.952Z,1011.26
2019-06-01T08:17:06.940Z,1011.35
2019-06-01T08:18:06.949Z,1011.35
2019-06-01T08:19:06.931Z,1011.28
2019-06-01T08:20:06.906Z,1011.03
2019-06-01T08:21:06.898Z,1011.34
2019-06-01T08:22:06.902Z,1011.30
2019-06-01T08:23:06.900Z,1011.37
2019-06-01T08:24:07.093Z,1011.37
2019-06-01T08:25:06.854Z,1011.36
2019-06-01T08:26:06.843Z,1011.30
2019-06-01T08:27:06.830Z,1011.35
2019-06-01T08:28:06.833Z,1011.41
2019-06-01T08:29:06.830Z,1011.35
2019-06-01T08:30:06.799Z,1011.39
2019-06-01T08:31:06.795Z,1011.32
2019-06-01T08:32:06.781Z,1011.17
2019-06-01T08:33:06.775Z,1011.23
2019-06-01T08:34:06.823Z,1011.20
2019-06-01T08:35:09.061Z,1011.15
2019-06-01T08:36:06.739Z,1011.14
2019-06-01T08:37:06.781Z,1011.15
2019-06-01T08:38:06.718Z,1011.38
2019-06-01T08:39:06.749Z,1011.29
2019-06-01T08:40:06.728Z,1011.31
2019-06-01T08:41:06.694Z,1010.83
2019-06-01T08:42:06.686Z,1011.11
2019-06-01T08:43:06.722Z,1010.89
2019-06-01T08:44:06.680Z,1010.75
2019-06-01T08:45:06.712Z,1010.79
2019-06-01T08:46:06.641Z,1011.28
2019-06-01T08:47:06.634Z,1011.37
2019-06-01T08:48:06.621Z,1011.24
2019-06-01T08:49:06.616Z,1011.30
2019-06-01T08:50:06.646Z,1011.26
2019-06-01T08:51:06.597Z,1011.31
2019-06-01T08:52:06.607Z,1010.90
2019-06-01T08:53:06.569Z,1011.16
2019-06-01T08:54:06.579Z,1011.11
2019-06-01T08:55:06.568Z,1011.26
2019-06-01T08:56:06.570Z,1011.08
2019-06-01T08:57:06.535Z,1011.30
2019-06-01T08:58:06.528Z,1011.25
2019-06-01T08:59:06.543Z,1011.13
2019-06-01T09:00:06.504Z,1011.11
2019-06-01T09:01:06.524Z,1011.16
2019-06-01T09:02:06.492Z,1011.11
2019-06-01T09:03:06.500Z,1011.12
2019-06-01T09:04:06.458Z,1010.98
2019-06-01T09:05:06.453Z,1010.59
2019-06-01T09:06:06.440Z,1010.96
2019-06-01T09:07:06.461Z,1011.08
2019-06-01T09:08:06.418Z,1011.10
2019-06-01T09:09:06.415Z,1011.03
2019-06-01T09:10:06.399Z,1011.00
2019-06-01T09:11:06.398Z,1010.98
2019-06-01T09:12:06.389Z,1011.05
2019-06-01T09:13:06.404Z,1011.07
2019-06-01T09:14:06.362Z,1011.12
2019-06-01T09:15:06.350Z,1011.01
2019-06-01T09:16:06.351Z,1011.01
2019-06-01T09:17:06.337Z,1011.02
2019-06-01T09:18:06.343Z,1011.03
2019-06-01T09:19:06.324Z,1011.05
2019-06-01T09:20:06.311Z,1011.14
2019-06-01T09:21:06.294Z,1011.05
2019-06-01T09:22:06.287Z,1011.11
2019-06-01T09:23:06.300Z,1011.05
2019-06-01T09:24:06.275Z,1011.04
2019-06-01T09:25:06.274Z,1011.01
2019-06-01T09:26:06.260Z,1010.97
2019-06-01T09:27:06.231Z,1011.10
2019-06-01T09:28:06.248Z,1010.90
2019-06-01T09:29:06.212Z,1010.73
2019-06-01T09:30:06.212Z,1010.72
2019-06-01T09:31:06.194Z,1010.69
2019-06-01T09:32:10.535Z,1010.67
2019-06-01T09:33:07.213Z,1010.75
2019-06-01T09:34:06.158Z,1010.75
2019-06-01T09:35:06.169Z,1010.78
2019-06-01T09:36:06.142Z,1010.99
2019-06-01T09:37:06.128Z,1011.04
2019-06-01T09:38:06.131Z,1011.11
2019-06-01T09:39:06.136Z,1011.02
2019-06-01T09:40:06.106Z,1011.00
2019-06-01T09:41:06.098Z,1010.91
2019-06-01T09:42:06.082Z,1010.91
2019-06-01T09:43:06.083Z,1010.99
2019-06-01T09:44:06.054Z,1011.02
2019-06-01T09:45:06.086Z,1011.08
2019-06-01T09:46:06.038Z,1011.11
2019-06-01T09:47:06.022Z,1011.11
2019-06-01T09:48:06.027Z,1011.01
2019-06-01T09:49:06.048Z,1011.03
2019-06-01T09:50:06.014Z,1011.04
2019-06-01T09:51:05.994Z,1010.94
2019-06-01T09:52:05.973Z,1011.01
2019-06-01T09:53:05.963Z,1010.96
2019-06-01T09:54:05.954Z,1010.98
2019-06-01T09:55:05.966Z,1010.99
2019-06-01T09:56:05.940Z,1011.03
2019-06-01T09:57:05.956Z,1011.00
2019-06-01T09:58:05.931Z,1011.01
2019-06-01T09:59:05.907Z,1011.01
2019-06-01T10:00:05.924Z,1010.98
2019-06-01T10:01:05.885Z,1010.91
2019-06-01T10:02:05.878Z,1010.93
2019-06-01T10:03:05.862Z,1010.91
2019-06-01T10:04:05.858Z,1010.97
2019-06-01T10:05:05.848Z,1010.94
2019-06-01T10:06:05.864Z,1010.94
2019-06-01T10:07:05.865Z,1010.89
2019-06-01T10:08:05.815Z,1010.91
2019-06-01T10:09:05.820Z,1010.93
2019-06-01T10:10:05.813Z,1010.89
2019-06-01T10:11:05.810Z,1010.95
2019-06-01T10:12:05.783Z,1010.96
2019-06-01T10:13:07.912Z,1010.90
2019-06-01T10:14:05.764Z,1010.90
2019-06-01T10:15:05.758Z,1010.84
2019-06-01T10:16:05.797Z,1010.89
2019-06-01T10:17:05.762Z,1010.85
2019-06-01T10:18:05.758Z,1010.90
2019-06-01T10:19:05.712Z,1010.88
2019-06-01T10:20:05.704Z,1010.91
2019-06-01T10:21:05.699Z,1010.86
2019-06-01T10:22:05.708Z,1010.93
2019-06-01T10:23:05.670Z,1010.95
2019-06-01T10:24:05.663Z,1010.88
2019-06-01T10:25:05.659Z,1010.86
2019-06-01T10:26:05.662Z,1010.84
2019-06-01T10:27:05.663Z,1010.86
2019-06-01T10:28:05.641Z,1010.88
2019-06-01T10:29:05.624Z,1010.82
2019-06-01T10:30:05.607Z,1010.87
2019-06-01T10:31:05.598Z,1010.86
2019-06-01T10:32:05.630Z,1010.85
2019-06-01T10:33:05.575Z,1010.82
2019-06-01T10:34:05.665Z,1010.73
2019-06-01T10:35:05.560Z,1010.80
2019-06-01T10:36:19.722Z,1010.70
2019-06-01T10:37:06.570Z,1010.80
2019-06-01T10:38:05.526Z,1010.75
2019-06-01T10:39:05.530Z,1010.74
2019-06-01T10:40:05.526Z,1010.79
2019-06-01T10:41:05.516Z,1010.75
2019-06-01T10:42:05.518Z,1010.71
2019-06-01T10:43:05.481Z,1010.62
2019-06-01T10:44:05.477Z,1010.73
2019-06-01T10:45:05.471Z,1010.71
2019-06-01T10:46:05.462Z,1010.72
2019-06-01T10:47:05.479Z,1010.66
2019-06-01T10:48:05.444Z,1010.70
2019-06-01T10:49:05.434Z,1010.61
2019-06-01T10:50:05.422Z,1010.54
2019-06-01T10:51:05.420Z,1010.66
2019-06-01T10:52:05.396Z,1010.53
2019-06-01T10:53:05.438Z,1010.52
2019-06-01T10:54:05.382Z,1010.47
2019-06-01T10:55:05.387Z,1010.45
2019-06-01T10:56:05.357Z,1010.48
2019-06-01T10:57:05.378Z,1010.44
2019-06-01T10:58:05.369Z,1010.46
2019-06-01T10:59:05.335Z,1010.41
2019-06-01T11:00:05.323Z,1010.42
2019-06-01T11:01:05.313Z,1010.58
2019-06-01T11:02:05.298Z,1010.53
2019-06-01T11:03:05.327Z,1010.53
2019-06-01T11:04:05.281Z,1010.56
2019-06-01T11:05:05.273Z,1010.59
2019-06-01T11:06:05.256Z,1010.66
2019-06-01T11:07:05.250Z,1010.59
2019-06-01T11:08:05.244Z,1010.52
2019-06-01T11:09:05.257Z,1010.56
2019-06-01T11:10:05.220Z,1010.57
2019-06-01T11:11:05.219Z,1010.61
2019-06-01T11:12:05.208Z,1010.53
2019-06-01T11:13:05.206Z,1010.51
2019-06-01T11:14:05.202Z,1010.56
2019-06-01T11:15:05.190Z,1010.51
2019-06-01T11:16:05.163Z,1010.48
2019-06-01T11:17:05.156Z,1010.47
2019-06-01T11:18:05.145Z,1010.42
2019-06-01T11:19:05.197Z,1010.45
2019-06-01T11:20:05.118Z,1010.43
2019-06-01T11:21:05.114Z,1010.46
2019-06-01T11:22:05.106Z,1010.47
2019-06-01T11:23:05.094Z,1010.48
2019-06-01T11:24:05.105Z,1010.40
2019-06-01T11:25:05.091Z,1010.41
2019-06-01T11:26:05.068Z,1010.40
2019-06-01T11:27:05.058Z,1010.32
2019-06-01T11:28:05.068Z,1010.30
2019-06-01T11:29:05.077Z,1010.25
2019-06-01T11:30:05.047Z,1010.31
2019-06-01T11:31:05.013Z,1010.29
2019-06-01T11:32:05.007Z,1010.21
2019-06-01T11:33:05.008Z,1010.24
2019-06-01T11:34:05.016Z,1010.24
2019-06-01T11:35:05.000Z,1010.30
2019-06-01T11:36:04.997Z,1010.28
2019-06-01T11:37:05.772Z,1010.24
2019-06-01T11:38:04.952Z,1010.24
2019-06-01T11:39:04.952Z,1010.31
2019-06-01T11:40:04.961Z,1010.22
2019-06-01T11:41:04.931Z,1010.28
2019-06-01T11:42:04.923Z,1010.20
2019-06-01T11:43:04.901Z,1010.20
2019-06-01T11:44:04.899Z,1010.22
2019-06-01T11:45:04.907Z,1010.17
2019-06-01T11:46:04.871Z,1010.14
2019-06-01T11:47:04.863Z,1010.17
2019-06-01T11:48:04.856Z,1010.10
2019-06-01T11:49:04.846Z,1010.09
2019-06-01T11:50:04.866Z,1010.12
2019-06-01T11:51:04.822Z,1010.09
2019-06-01T11:52:04.813Z,1010.03
2019-06-01T11:53:04.804Z,1010.05
2019-06-01T11:54:04.790Z,1010.06
2019-06-01T11:55:04.791Z,1010.07
2019-06-01T11:56:04.794Z,1010.07
2019-06-01T11:57:04.756Z,1010.07
2019-06-01T11:58:04.779Z,1010.02
2019-06-01T11:59:04.737Z,1009.96
2019-06-01T12:00:04.730Z,1009.96
2019-06-01T12:01:04.762Z,1010.01
2019-06-01T12:02:04.705Z,1010.04
2019-06-01T12:03:04.701Z,1009.95
2019-06-01T12:04:04.688Z,1010.01
2019-06-01T12:05:04.686Z,1009.94